Time;durP1;ratioP1;P1;durP2;ratioP2;P2;SDS_P1;SDS_P2;PMS_P1;PMS_P2;Temp;Humidity;BMP_temperature;BMP_pressure;BME280_temperature;BME280_humidity;BME280_pressure;Samples;Min_cycle;Max_cycle;Signal;HPM_P1;HPM_P2
2022/05/17 00:01:59;;;;;;;21.37;20.53;;;17.40;53.70;;;;;;5030795;28;20431;-84
2022/05/17 00:04:25;;;;;;;21.83;20.93;;;17.40;53.40;;;;;;5030534;28;20220;-85
2022/05/17 00:06:51;;;;;;;21.50;20.60;;;17.40;53.70;;;;;;5031068;28;20183;-84
2022/05/17 00:09:17;;;;;;;21.13;20.27;;;17.40;53.80;;;;;;5031128;28;20181;-83
2022/05/17 00:11:47;;;;;;;22.03;20.93;;;17.40;53.60;;;;;;5031012;28;20594;-82
2022/05/17 00:14:13;;;;;;;22.30;21.00;;;17.40;53.40;;;;;;5030117;28;20419;-82
2022/05/17 00:16:41;;;;;;;21.70;20.80;;;17.40;53.80;;;;;;5030850;28;20420;-83
2022/05/17 00:19:08;;;;;;;21.27;20.37;;;17.40;53.60;;;;;;5030828;28;20419;-82
2022/05/17 00:21:34;;;;;;;21.60;20.60;;;17.40;54.00;;;;;;5031191;28;20434;-82
2022/05/17 00:24:00;;;;;;;21.17;20.23;;;17.40;54.20;;;;;;5032651;28;20899;-82
2022/05/17 00:26:26;;;;;;;21.87;20.97;;;17.30;54.20;;;;;;5030882;28;20480;-82
2022/05/17 00:28:51;;;;;;;23.57;22.27;;;17.30;53.70;;;;;;5030989;28;20271;-82
2022/05/17 00:31:17;;;;;;;21.20;20.30;;;17.30;54.50;;;;;;5030734;28;20181;-82
2022/05/17 00:33:42;;;;;;;21.43;20.43;;;17.30;54.50;;;;;;5030580;28;20177;-82
2022/05/17 00:36:08;;;;;;;21.23;20.43;;;17.30;54.80;;;;;;5030408;28;20176;-82
2022/05/17 00:38:34;;;;;;;21.27;20.37;;;17.20;55.00;;;;;;5030780;28;20312;-82
2022/05/17 00:41:00;;;;;;;22.13;21.03;;;17.20;54.50;;;;;;5030710;28;20188;-82
2022/05/17 00:44:42;;;;;;;22.67;21.50;;;17.30;54.50;;;;;;5030356;28;20215;-83
2022/05/17 00:46:23;;;;;;;21.17;20.17;;;17.20;54.30;;;;;;5031010;28;20485;-82
2022/05/17 00:48:49;;;;;;;22.07;21.03;;;17.20;54.00;;;;;;5030464;28;20922;-82
2022/05/17 00:51:16;;;;;;;21.60;20.50;;;17.10;54.60;;;;;;5030471;28;20415;-82
2022/05/17 00:53:42;;;;;;;21.67;20.77;;;17.10;54.80;;;;;;5030166;28;20783;-82
2022/05/17 00:56:14;;;;;;;22.27;20.97;;;17.10;55.70;;;;;;5031251;28;20530;-83
2022/05/17 00:58:47;;;;;;;22.80;21.70;;;17.10;55.30;;;;;;5030522;28;20216;-83
2022/05/17 01:01:23;;;;;;;22.13;21.03;;;17.10;55.40;;;;;;5030350;28;20419;-83
2022/05/17 01:03:53;;;;;;;21.43;20.53;;;17.00;55.40;;;;;;5026578;28;20477;-83
2022/05/17 01:06:20;;;;;;;22.27;21.03;;;16.90;55.10;;;;;;5031936;28;20467;-82
2022/05/17 01:08:46;;;;;;;22.60;21.67;;;17.00;55.80;;;;;;5029694;28;20429;-81
2022/05/17 01:11:13;;;;;;;22.53;21.47;;;17.00;55.70;;;;;;5029219;28;20431;-82
2022/05/17 01:16:24;;;;;;;22.27;21.37;;;17.00;55.40;;;;;;5030630;28;20484;-82
2022/05/17 01:18:50;;;;;;;22.60;21.40;;;16.90;55.40;;;;;;5028630;28;20423;-82
2022/05/17 01:21:16;;;;;;;22.23;21.20;;;16.90;56.00;;;;;;5029570;28;20867;-82
2022/05/17 01:23:42;;;;;;;23.13;22.13;;;16.80;56.50;;;;;;5029324;28;20505;-82
2022/05/17 01:26:13;;;;;;;22.40;21.20;;;16.80;57.00;;;;;;5028026;28;20555;-81
2022/05/17 01:28:38;;;;;;;23.20;22.10;;;16.70;56.80;;;;;;5031705;28;20251;-82
2022/05/17 01:31:05;;;;;;;23.83;22.73;;;16.70;56.50;;;;;;5033487;28;20942;-82
2022/05/17 01:33:36;;;;;;;22.30;21.40;;;16.70;56.80;;;;;;5033542;28;20180;-82
2022/05/17 01:36:05;;;;;;;22.40;21.30;;;16.60;57.20;;;;;;5033049;28;20427;-81
2022/05/17 01:38:31;;;;;;;21.83;20.83;;;16.60;57.50;;;;;;5033415;28;20419;-82
2022/05/17 01:40:57;;;;;;;22.13;21.03;;;16.50;58.20;;;;;;5033480;28;20931;-82
2022/05/17 01:43:23;;;;;;;21.70;20.70;;;16.50;57.70;;;;;;5033384;28;20438;-82
2022/05/17 01:45:49;;;;;;;22.13;20.10;;;16.50;58.10;;;;;;5032736;28;20463;-82
2022/05/17 01:48:14;;;;;;;21.43;20.33;;;16.40;58.40;;;;;;5033300;28;20179;-82
2022/05/17 01:50:40;;;;;;;21.03;20.13;;;16.40;58.10;;;;;;5033304;28;20173;-82
2022/05/17 01:53:06;;;;;;;20.83;19.67;;;16.30;58.70;;;;;;5033053;28;20177;-82
2022/05/17 01:55:31;;;;;;;21.40;20.40;;;16.30;59.00;;;;;;5032704;28;20238;-82
2022/05/17 01:57:57;;;;;;;21.47;20.50;;;16.30;58.90;;;;;;5033164;28;20191;-82
2022/05/17 02:00:24;;;;;;;21.27;20.30;;;16.40;59.10;;;;;;5032974;28;20180;-83
2022/05/17 02:02:51;;;;;;;20.93;20.03;;;16.30;59.10;;;;;;5033019;28;20447;-83
2022/05/17 02:05:19;;;;;;;21.20;20.30;;;16.30;59.20;;;;;;5032633;28;20455;-83
2022/05/17 02:07:44;;;;;;;21.17;20.20;;;16.30;60.00;;;;;;5033053;28;20488;-83
2022/05/17 02:10:11;;;;;;;21.43;20.33;;;16.20;60.00;;;;;;5033046;28;20506;-83
2022/05/17 02:12:36;;;;;;;21.57;20.47;;;16.20;60.40;;;;;;5029963;28;20659;-83
2022/05/17 02:15:05;;;;;;;21.80;20.80;;;16.20;60.00;;;;;;5022012;28;20428;-83
2022/05/17 02:17:31;;;;;;;21.17;20.07;;;16.20;60.30;;;;;;5022177;28;20264;-83
2022/05/17 02:19:58;;;;;;;21.40;20.20;;;16.20;60.10;;;;;;5023436;28;20503;-83
2022/05/17 02:22:24;;;;;;;21.07;19.80;;;16.20;60.20;;;;;;5021580;28;20761;-83
2022/05/17 02:24:50;;;;;;;21.20;20.20;;;16.10;60.10;;;;;;5023274;28;20466;-82
2022/05/17 02:27:16;;;;;;;20.43;19.43;;;16.10;60.00;;;;;;5021119;28;20173;-81
2022/05/17 02:29:42;;;;;;;20.67;19.67;;;16.00;60.40;;;;;;5021784;28;20416;-82
2022/05/17 02:32:08;;;;;;;21.43;20.23;;;16.00;60.40;;;;;;5021913;28;20419;-82
2022/05/17 02:34:36;;;;;;;20.17;19.10;;;16.00;60.90;;;;;;5022788;28;20173;-82
2022/05/17 02:37:04;;;;;;;20.63;19.70;;;16.00;61.10;;;;;;5029981;28;20661;-82
2022/05/17 02:39:30;;;;;;;20.67;19.67;;;16.00;61.40;;;;;;5031197;28;20474;-83
2022/05/17 02:41:56;;;;;;;20.50;19.53;;;15.90;61.40;;;;;;5020730;28;20428;-82
2022/05/17 02:44:22;;;;;;;21.40;20.47;;;15.90;60.80;;;;;;5020872;28;20428;-83
2022/05/17 02:46:47;;;;;;;21.17;19.90;;;15.90;61.40;;;;;;5021258;28;20420;-83
2022/05/17 02:49:13;;;;;;;20.40;19.50;;;15.90;61.70;;;;;;5024472;28;20224;-83
2022/05/17 02:51:39;;;;;;;20.87;19.87;;;15.90;61.50;;;;;;5021066;28;20212;-83
2022/05/17 02:54:07;;;;;;;20.60;19.50;;;15.80;62.10;;;;;;5021973;28;20282;-82
2022/05/17 02:56:33;;;;;;;20.33;19.53;;;15.90;61.20;;;;;;5022600;28;20181;-82
2022/05/17 02:58:59;;;;;;;21.20;20.20;;;15.90;61.50;;;;;;5022079;28;20420;-82
2022/05/17 03:01:25;;;;;;;20.37;19.33;;;15.80;61.60;;;;;;5020792;28;20417;-83
2022/05/17 03:03:51;;;;;;;21.57;20.47;;;15.80;61.50;;;;;;5021069;28;20946;-83
2022/05/17 03:06:17;;;;;;;21.10;20.10;;;15.80;61.80;;;;;;5024961;28;20454;-82
2022/05/17 03:08:42;;;;;;;22.20;21.20;;;15.80;62.60;;;;;;5021104;28;20181;-82
2022/05/17 03:11:08;;;;;;;22.67;21.47;;;15.70;62.40;;;;;;5021497;28;20176;-82
2022/05/17 03:13:35;;;;;;;21.73;20.63;;;15.70;62.10;;;;;;5022529;28;20172;-82
2022/05/17 03:16:02;;;;;;;21.73;20.63;;;15.70;62.30;;;;;;5022058;28;20176;-82
2022/05/17 03:18:28;;;;;;;22.00;21.00;;;15.70;62.00;;;;;;5021749;28;20482;-82
2022/05/17 03:20:53;;;;;;;22.27;21.07;;;15.60;62.30;;;;;;5020964;28;20427;-83
2022/05/17 03:23:19;;;;;;;22.10;21.00;;;15.60;62.40;;;;;;5023414;28;20596;-82
2022/05/17 03:25:46;;;;;;;22.03;20.73;;;15.60;62.50;;;;;;5021764;28;20250;-82
2022/05/17 03:28:12;;;;;;;22.30;21.07;;;15.60;63.00;;;;;;5021590;28;20173;-82
2022/05/17 03:30:39;;;;;;;22.17;20.97;;;15.60;62.80;;;;;;5020120;28;20471;-82
2022/05/17 03:33:05;;;;;;;21.17;20.27;;;15.60;63.50;;;;;;5023332;28;20416;-82
2022/05/17 03:35:31;;;;;;;22.17;21.03;;;15.60;63.30;;;;;;5031075;28;20429;-83
2022/05/17 03:37:56;;;;;;;22.70;21.40;;;15.50;63.70;;;;;;5031411;28;20423;-82
2022/05/17 03:40:22;;;;;;;20.90;20.00;;;15.50;63.60;;;;;;5031467;28;20271;-82
2022/05/17 03:42:48;;;;;;;21.37;20.07;;;15.50;63.70;;;;;;5031159;28;20224;-82
2022/05/17 03:45:14;;;;;;;22.00;20.90;;;15.50;63.80;;;;;;5030530;28;20553;-82
2022/05/17 03:47:40;;;;;;;21.70;20.70;;;15.50;63.70;;;;;;5031127;28;20172;-82
2022/05/17 03:50:06;;;;;;;21.50;20.50;;;15.50;63.90;;;;;;5031202;28;20199;-84
2022/05/17 03:52:32;;;;;;;21.10;20.10;;;15.50;64.20;;;;;;5031153;28;20760;-83
2022/05/17 03:54:59;;;;;;;22.63;21.53;;;15.50;64.30;;;;;;5030455;28;20430;-82
2022/05/17 03:57:27;;;;;;;22.90;21.60;;;15.50;63.60;;;;;;5014108;28;20193;-83
2022/05/17 03:59:53;;;;;;;21.90;20.80;;;15.40;63.90;;;;;;5011501;28;20432;-83
2022/05/17 04:02:20;;;;;;;23.10;21.90;;;15.40;63.60;;;;;;5011101;28;20769;-83
2022/05/17 04:04:45;;;;;;;22.90;21.70;;;15.40;64.10;;;;;;5011002;28;20550;-83
2022/05/17 04:07:11;;;;;;;23.03;21.93;;;15.40;64.10;;;;;;5011124;28;20808;-83
2022/05/17 04:09:36;;;;;;;21.67;20.67;;;15.40;64.40;;;;;;5011286;28;20622;-83
2022/05/17 04:12:03;;;;;;;22.20;21.10;;;15.40;64.50;;;;;;5012144;28;20232;-82
2022/05/17 04:14:29;;;;;;;23.77;22.60;;;15.40;64.10;;;;;;5011140;28;20188;-88
2022/05/17 04:16:55;;;;;;;23.47;22.17;;;15.30;64.70;;;;;;5011447;28;20923;-85
2022/05/17 04:19:21;;;;;;;22.93;21.83;;;15.30;65.20;;;;;;5011231;28;20856;-86
2022/05/17 04:21:47;;;;;;;23.03;21.87;;;15.30;64.70;;;;;;5011498;28;20486;-86
2022/05/17 04:24:14;;;;;;;23.00;21.70;;;15.50;65.00;;;;;;5008331;28;20203;-83
2022/05/17 04:26:41;;;;;;;21.83;20.83;;;15.40;64.50;;;;;;5025024;28;20558;-83
2022/05/17 04:29:08;;;;;;;22.43;21.20;;;15.50;64.50;;;;;;5030271;28;20477;-83
2022/05/17 04:31:34;;;;;;;23.00;21.80;;;15.50;63.70;;;;;;5030639;28;20450;-82
2022/05/17 04:34:00;;;;;;;23.83;22.53;;;15.50;64.40;;;;;;5030275;28;20427;-84
2022/05/17 04:36:26;;;;;;;22.70;21.60;;;15.50;63.50;;;;;;5030549;28;20419;-83
2022/05/17 04:38:52;;;;;;;22.73;21.33;;;15.50;64.20;;;;;;5034156;28;20927;-83
2022/05/17 04:41:18;;;;;;;20.57;19.30;;;15.60;64.60;;;;;;5034302;28;20426;-83
2022/05/17 04:43:44;;;;;;;23.77;22.43;;;15.60;64.00;;;;;;5034840;28;20439;-83
2022/05/17 04:46:10;;;;;;;23.10;21.73;;;15.60;63.20;;;;;;5035115;28;20216;-83
2022/05/17 04:48:45;;;;;;;23.63;21.83;;;15.60;63.70;;;;;;5035661;28;20196;-85
2022/05/17 04:51:14;;;;;;;22.13;21.00;;;15.60;63.90;;;;;;5036656;28;20415;-83
2022/05/17 04:53:43;;;;;;;21.80;20.70;;;15.50;63.20;;;;;;5035861;28;20934;-84
2022/05/17 04:56:14;;;;;;;22.47;21.33;;;15.60;63.60;;;;;;5034896;28;20431;-84
2022/05/17 04:58:44;;;;;;;22.90;21.80;;;15.70;63.40;;;;;;5033961;28;20426;-85
2022/05/17 05:01:10;;;;;;;23.47;22.07;;;15.60;61.90;;;;;;5032951;28;20794;-85
2022/05/17 05:03:35;;;;;;;24.23;22.90;;;15.60;62.30;;;;;;5034493;28;20423;-85
2022/05/17 05:06:01;;;;;;;20.93;19.57;;;15.70;63.40;;;;;;5033703;28;20216;-85
2022/05/17 05:08:27;;;;;;;23.37;21.50;;;15.70;62.10;;;;;;5033989;28;20180;-85
2022/05/17 05:10:52;;;;;;;24.80;22.83;;;15.80;62.40;;;;;;5034088;28;20202;-85
2022/05/17 05:13:19;;;;;;;21.17;19.97;;;15.80;62.60;;;;;;5032995;28;20226;-85
2022/05/17 05:15:46;;;;;;;23.10;22.00;;;15.90;62.30;;;;;;5033394;28;20180;-85
2022/05/17 05:18:12;;;;;;;22.30;21.20;;;15.90;62.60;;;;;;5032323;28;20435;-85
2022/05/17 05:20:39;;;;;;;22.43;21.43;;;16.00;61.60;;;;;;5033305;28;20477;-85
2022/05/17 05:23:05;;;;;;;22.47;21.27;;;16.00;62.20;;;;;;5033712;28;20484;-83
2022/05/17 05:25:31;;;;;;;22.00;21.00;;;16.00;61.10;;;;;;5032341;28;20819;-85
2022/05/17 05:27:58;;;;;;;23.40;22.10;;;16.00;61.90;;;;;;5033026;28;21022;-83
2022/05/17 05:30:23;;;;;;;22.93;21.63;;;16.10;62.10;;;;;;5030622;28;20423;-83
2022/05/17 05:32:49;;;;;;;22.90;21.70;;;16.20;61.90;;;;;;5033535;28;20931;-83
2022/05/17 05:35:18;;;;;;;24.00;22.80;;;16.20;60.90;;;;;;5032941;28;20533;-84
2022/05/17 05:37:44;;;;;;;24.30;23.00;;;16.20;60.90;;;;;;5029841;28;20191;-83
2022/05/17 05:40:11;;;;;;;23.03;22.00;;;16.30;60.60;;;;;;5026649;28;20439;-83
2022/05/17 05:42:39;;;;;;;23.00;21.70;;;16.30;61.30;;;;;;5020532;28;20470;-83
2022/05/17 05:45:06;;;;;;;22.70;21.30;;;16.30;60.80;;;;;;5017984;28;20471;-83
2022/05/17 05:47:32;;;;;;;24.00;22.70;;;16.40;59.90;;;;;;5032323;28;20441;-83
2022/05/17 05:50:01;;;;;;;22.90;21.73;;;16.50;60.70;;;;;;5033166;28;20800;-83
2022/05/17 05:52:27;;;;;;;23.93;22.10;;;16.50;61.00;;;;;;5031623;28;20558;-83
2022/05/17 05:54:52;;;;;;;23.13;21.87;;;16.60;60.60;;;;;;5031968;28;20449;-83
2022/05/17 05:57:18;;;;;;;24.07;22.77;;;16.60;60.00;;;;;;5032760;28;20180;-83
2022/05/17 05:59:44;;;;;;;24.80;23.00;;;16.70;59.60;;;;;;5031991;28;20199;-84
2022/05/17 06:02:11;;;;;;;28.83;24.23;;;16.70;58.70;;;;;;5031393;28;20188;-84
2022/05/17 06:04:37;;;;;;;26.00;23.90;;;16.70;59.10;;;;;;5027546;28;20192;-84
2022/05/17 06:07:04;;;;;;;25.17;23.70;;;16.80;58.70;;;;;;5032770;28;20438;-83
2022/05/17 06:09:30;;;;;;;24.60;23.40;;;16.90;58.20;;;;;;5031606;28;20430;-82
2022/05/17 06:11:56;;;;;;;23.93;22.77;;;17.00;58.40;;;;;;5030901;28;20443;-80
2022/05/17 06:14:22;;;;;;;26.02;24.33;;;17.00;58.50;;;;;;5032308;28;20508;-82
2022/05/17 06:16:49;;;;;;;25.37;23.97;;;17.10;59.70;;;;;;5033719;28;20177;-82
2022/05/17 06:19:15;;;;;;;26.37;24.80;;;17.20;58.50;;;;;;5032705;28;20469;-82
2022/05/17 06:21:41;;;;;;;24.80;23.60;;;17.20;57.70;;;;;;5032650;28;20444;-82
2022/05/17 06:24:07;;;;;;;29.37;27.67;;;17.30;57.90;;;;;;5032417;28;20481;-83
2022/05/17 06:26:33;;;;;;;26.07;24.70;;;17.40;56.50;;;;;;5029916;28;20211;-84
2022/05/17 06:28:59;;;;;;;24.17;22.73;;;17.40;55.70;;;;;;5030575;28;20415;-83
2022/05/17 06:31:25;;;;;;;24.67;23.27;;;17.50;56.80;;;;;;5033724;28;20204;-84
2022/05/17 06:33:51;;;;;;;25.87;23.90;;;17.60;56.60;;;;;;5033444;28;20494;-83
2022/05/17 06:36:17;;;;;;;25.23;23.70;;;17.60;56.00;;;;;;5032290;28;20219;-83
2022/05/17 06:38:42;;;;;;;26.37;24.97;;;17.70;56.90;;;;;;5031931;28;20943;-84
2022/05/17 06:41:08;;;;;;;24.53;23.13;;;17.70;56.30;;;;;;5032417;28;20177;-84
2022/05/17 06:43:34;;;;;;;25.97;24.43;;;17.80;55.80;;;;;;5027615;28;20185;-85
2022/05/17 06:46:01;;;;;;;25.50;24.00;;;17.80;55.40;;;;;;5012772;28;20201;-85
2022/05/17 06:48:28;;;;;;;25.87;24.43;;;17.90;56.50;;;;;;5012817;28;20169;-84
2022/05/17 06:50:54;;;;;;;26.10;24.70;;;18.00;54.70;;;;;;5020587;28;20427;-84
2022/05/17 06:53:20;;;;;;;26.00;24.70;;;18.00;54.80;;;;;;5022443;28;20427;-84
2022/05/17 06:55:45;;;;;;;26.97;25.47;;;18.10;55.10;;;;;;5031738;28;20181;-83
2022/05/17 06:58:11;;;;;;;25.20;23.70;;;18.20;55.40;;;;;;5031205;28;20184;-83
2022/05/17 07:00:37;;;;;;;26.50;25.10;;;18.20;54.40;;;;;;5031393;28;20184;-82
2022/05/17 07:03:03;;;;;;;25.80;24.60;;;18.30;54.00;;;;;;5032088;28;20172;-82
2022/05/17 07:05:28;;;;;;;28.47;26.73;;;18.50;53.10;;;;;;5031220;28;20200;-82
2022/05/17 07:07:59;;;;;;;26.80;25.20;;;18.60;52.30;;;;;;5031982;28;20430;-83
2022/05/17 07:13:08;;;;;;;25.30;24.00;;;18.60;53.40;;;;;;5037416;28;20588;-83
2022/05/17 07:15:39;;;;;;;27.60;26.20;;;18.60;53.00;;;;;;5030698;28;20977;-84
2022/05/17 07:18:06;;;;;;;26.07;24.87;;;18.70;53.40;;;;;;5031454;28;20575;-83
2022/05/17 07:20:32;;;;;;;27.63;25.03;;;18.80;52.50;;;;;;5031488;28;20414;-83
2022/05/17 07:22:57;;;;;;;23.80;22.50;;;18.80;52.20;;;;;;5031341;28;20415;-83
2022/05/17 07:25:23;;;;;;;26.23;24.63;;;18.90;52.80;;;;;;5030740;28;20832;-83
2022/05/17 07:27:49;;;;;;;28.10;26.40;;;19.00;52.00;;;;;;5031275;28;20188;-83
2022/05/17 07:30:15;;;;;;;27.10;25.80;;;19.10;51.40;;;;;;5031438;28;20172;-83
2022/05/17 07:32:41;;;;;;;25.77;24.57;;;19.20;51.20;;;;;;5032096;28;20787;-83
2022/05/17 07:35:09;;;;;;;27.77;26.37;;;19.20;51.10;;;;;;5031603;28;20637;-83
2022/05/17 07:37:35;;;;;;;28.70;27.00;;;19.20;50.30;;;;;;5031718;28;20191;-83
2022/05/17 07:40:02;;;;;;;26.50;25.00;;;19.30;49.50;;;;;;5031483;28;20876;-84
2022/05/17 07:42:28;;;;;;;25.63;24.33;;;19.30;49.80;;;;;;5031119;28;20424;-83
2022/05/17 07:44:54;;;;;;;25.70;24.20;;;19.30;49.20;;;;;;5030532;28;20562;-83
2022/05/17 07:47:20;;;;;;;25.40;24.10;;;19.20;49.70;;;;;;5030799;28;20187;-83
2022/05/17 07:49:45;;;;;;;28.13;26.37;;;19.30;49.80;;;;;;5031069;28;20415;-83
2022/05/17 07:52:12;;;;;;;28.27;26.87;;;19.30;49.80;;;;;;5030965;28;20177;-83
2022/05/17 07:54:38;;;;;;;26.93;25.43;;;19.40;48.90;;;;;;5030677;28;20183;-83
2022/05/17 07:57:07;;;;;;;27.63;25.80;;;19.40;49.90;;;;;;5030055;28;20427;-84
2022/05/17 07:59:33;;;;;;;26.23;24.53;;;19.40;49.90;;;;;;5030995;28;20177;-84
2022/05/17 08:01:59;;;;;;;27.53;25.87;;;19.50;49.30;;;;;;5030977;28;20522;-83
2022/05/17 08:04:25;;;;;;;26.70;25.23;;;19.70;47.30;;;;;;5019168;28;20523;-83
2022/05/17 08:06:51;;;;;;;28.60;26.90;;;19.70;45.10;;;;;;5011562;28;20213;-83
2022/05/17 08:09:17;;;;;;;27.13;25.73;;;19.80;46.70;;;;;;5011293;28;20412;-83
2022/05/17 08:11:44;;;;;;;27.40;26.10;;;19.80;46.00;;;;;;5016197;28;20427;-83
2022/05/17 08:14:10;;;;;;;28.03;26.00;;;19.90;46.80;;;;;;5033489;28;20503;-83
2022/05/17 08:16:36;;;;;;;28.70;26.87;;;19.90;47.50;;;;;;5034244;28;20420;-85
2022/05/17 08:19:01;;;;;;;27.53;26.17;;;20.00;46.20;;;;;;5031007;28;20472;-84
2022/05/17 08:21:27;;;;;;;28.70;26.70;;;20.00;45.40;;;;;;5030815;28;20644;-83
2022/05/17 08:23:52;;;;;;;28.07;26.57;;;20.10;45.30;;;;;;5030709;28;20200;-83
2022/05/17 08:29:02;;;;;;;28.97;27.17;;;20.30;43.80;;;;;;5032432;28;20421;-86
2022/05/17 08:31:28;;;;;;;28.67;26.33;;;20.30;43.10;;;;;;5032166;28;20408;-82
2022/05/17 08:33:54;;;;;;;28.67;27.23;;;20.40;42.30;;;;;;5030886;28;20419;-84
2022/05/17 08:36:19;;;;;;;27.13;25.93;;;20.50;40.70;;;;;;5030105;28;20298;-84
2022/05/17 08:38:49;;;;;;;29.07;27.53;;;20.50;42.40;;;;;;5030606;28;20185;-84
2022/05/17 08:41:36;;;;;;;28.37;26.97;;;20.60;40.80;;;;;;5030567;28;20180;-84
2022/05/17 08:44:14;;;;;;;28.67;26.80;;;20.70;39.70;;;;;;5029142;28;20451;-84
2022/05/17 08:46:54;;;;;;;27.33;25.67;;;20.70;40.90;;;;;;5030664;28;20463;-84
2022/05/17 08:49:22;;;;;;;27.93;26.43;;;20.70;39.30;;;;;;5030471;28;20415;-84
2022/05/17 08:51:59;;;;;;;28.20;26.80;;;20.70;38.60;;;;;;5030478;28;20423;-84
2022/05/17 08:54:59;;;;;;;28.10;26.90;;;20.80;39.70;;;;;;5029985;28;20425;-84
2022/05/17 08:57:48;;;;;;;27.87;26.57;;;20.90;38.30;;;;;;4993477;28;20423;-84
2022/05/17 09:00:30;;;;;;;27.70;26.30;;;20.90;37.30;;;;;;5030453;28;20481;-83
2022/05/17 09:03:00;;;;;;;26.77;25.60;;;20.80;37.90;;;;;;5030553;28;20843;-83
2022/05/17 09:05:51;;;;;;;26.00;24.80;;;20.80;37.70;;;;;;5030014;28;20467;-83
2022/05/17 09:08:38;;;;;;;27.63;25.63;;;20.90;38.00;;;;;;5030451;28;20454;-83
2022/05/17 09:11:20;;;;;;;26.00;24.70;;;21.00;36.80;;;;;;5030371;28;20415;-84
2022/05/17 09:14:09;;;;;;;26.90;25.60;;;21.10;35.40;;;;;;5030251;28;20434;-84
2022/05/17 09:16:46;;;;;;;26.50;25.20;;;21.20;35.70;;;;;;5030651;28;20838;-84
2022/05/17 09:19:15;;;;;;;26.60;25.23;;;21.20;36.10;;;;;;5030261;28;20497;-83
2022/05/17 09:21:44;;;;;;;26.30;25.13;;;21.20;36.40;;;;;;5030191;28;20412;-83
2022/05/17 09:24:20;;;;;;;27.97;26.57;;;21.30;36.90;;;;;;5031801;28;20513;-83
2022/05/17 09:26:52;;;;;;;27.13;25.70;;;21.40;36.30;;;;;;5033644;28;20556;-83
2022/05/17 09:29:20;;;;;;;28.37;26.67;;;21.30;35.60;;;;;;5033902;28;20489;-83
2022/05/17 09:31:54;;;;;;;26.40;24.90;;;21.30;35.40;;;;;;5035209;28;20403;-83
2022/05/17 09:34:32;;;;;;;26.43;25.23;;;21.50;34.80;;;;;;5034370;28;20771;-83
2022/05/17 09:37:13;;;;;;;27.30;25.80;;;21.50;34.80;;;;;;5033963;28;20965;-83
2022/05/17 09:39:43;;;;;;;27.70;26.27;;;21.50;35.50;;;;;;5035006;28;20407;-83
2022/05/17 09:42:25;;;;;;;26.60;25.30;;;21.60;35.00;;;;;;5033357;28;20469;-83
2022/05/17 09:44:52;;;;;;;28.10;26.30;;;21.70;35.30;;;;;;5032272;28;20447;-83
2022/05/17 09:47:34;;;;;;;26.43;25.20;;;21.80;32.60;;;;;;5032231;28;20427;-83
2022/05/17 09:53:07;;;;;;;26.70;25.30;;;21.80;32.70;;;;;;5033212;28;20936;-83
2022/05/17 09:55:34;;;;;;;26.73;25.17;;;21.90;33.20;;;;;;5031642;28;20176;-83
2022/05/17 09:58:10;;;;;;;27.57;25.97;;;22.00;34.40;;;;;;5034184;28;20426;-82
2022/05/17 10:00:41;;;;;;;27.50;26.20;;;22.10;34.80;;;;;;5032697;28;20422;-82
2022/05/17 10:03:31;;;;;;;26.83;25.63;;;22.20;33.40;;;;;;5033360;28;20442;-82
2022/05/17 10:06:27;;;;;;;27.20;26.00;;;22.20;34.20;;;;;;5027099;28;20452;-85
2022/05/17 10:09:32;;;;;;;26.80;25.50;;;22.10;32.50;;;;;;5022966;28;20431;-83
2022/05/17 10:12:07;;;;;;;25.70;24.50;;;22.20;31.80;;;;;;5024463;28;20418;-83
2022/05/17 10:14:40;;;;;;;26.43;25.13;;;22.10;32.50;;;;;;5026316;28;20408;-84
2022/05/17 10:17:37;;;;;;;26.03;24.93;;;22.10;31.70;;;;;;5023254;28;20408;-83
2022/05/17 10:20:31;;;;;;;25.33;24.03;;;22.10;31.70;;;;;;5021350;28;20420;-84
2022/05/17 10:23:15;;;;;;;24.47;23.37;;;22.20;31.50;;;;;;5032481;28;20457;-84
2022/05/17 10:25:59;;;;;;;26.27;25.07;;;22.30;31.90;;;;;;5032186;28;20469;-84
2022/05/17 10:28:40;;;;;;;25.87;24.63;;;22.40;32.00;;;;;;5031518;28;20522;-84
2022/05/17 10:31:30;;;;;;;26.23;25.03;;;22.30;32.10;;;;;;5031644;28;20407;-84
2022/05/17 10:34:05;;;;;;;25.90;24.70;;;22.30;30.70;;;;;;5031693;28;20426;-84
2022/05/17 10:36:46;;;;;;;25.57;24.20;;;22.30;30.90;;;;;;5030815;28;20415;-84
2022/05/17 10:39:34;;;;;;;24.57;23.50;;;22.30;30.30;;;;;;5031369;28;20427;-84
2022/05/17 10:42:00;;;;;;;25.23;24.23;;;22.40;29.70;;;;;;5031591;28;20427;-84
2022/05/17 10:44:41;;;;;;;25.27;24.08;;;22.30;30.50;;;;;;4997146;28;1080219;-85
2022/05/17 10:48:05;;;;;;;26.67;25.23;;;22.30;31.10;;;;;;5032425;28;20180;-84
2022/05/17 10:51:06;;;;;;;25.60;24.50;;;22.40;31.40;;;;;;4949172;29;20434;-84
2022/05/17 10:53:43;;;;;;;24.73;23.53;;;22.50;30.50;;;;;;5012777;28;20447;-86
2022/05/17 10:56:27;;;;;;;24.50;23.50;;;22.50;27.60;;;;;;5022469;28;20415;-86
2022/05/17 10:59:11;;;;;;;23.20;22.30;;;22.60;27.60;;;;;;5014417;28;20424;-85
2022/05/17 11:01:54;;;;;;;24.20;23.20;;;22.80;27.40;;;;;;5019378;28;21178;-84
2022/05/17 11:05:02;;;;;;;24.00;23.00;;;22.90;26.90;;;;;;5031395;28;20480;-85
2022/05/17 11:08:05;;;;;;;24.03;23.03;;;23.00;26.60;;;;;;5031596;28;20502;-85
2022/05/17 11:10:33;;;;;;;23.57;22.47;;;23.00;26.60;;;;;;5032048;28;20415;-83
2022/05/17 11:13:24;;;;;;;23.80;22.80;;;23.00;27.70;;;;;;5032347;28;20429;-85
2022/05/17 11:16:00;;;;;;;24.97;23.50;;;23.10;27.00;;;;;;5032088;28;20403;-82
2022/05/17 11:18:30;;;;;;;22.30;21.40;;;23.20;27.60;;;;;;5031287;28;20426;-82
2022/05/17 11:21:07;;;;;;;22.73;21.77;;;23.20;26.50;;;;;;5032587;28;20499;-82
2022/05/17 11:23:53;;;;;;;23.70;22.50;;;23.20;27.00;;;;;;5031965;28;20484;-83
2022/05/17 11:26:22;;;;;;;23.23;22.13;;;23.40;26.20;;;;;;5028019;28;20451;-83
2022/05/17 11:29:07;;;;;;;24.33;22.90;;;23.50;26.20;;;;;;5031643;28;20424;-83
2022/05/17 11:31:33;;;;;;;23.40;22.40;;;23.30;25.60;;;;;;5032127;28;20429;-82
2022/05/17 11:34:26;;;;;;;23.30;22.20;;;23.30;26.90;;;;;;5031307;28;20423;-82
2022/05/17 11:36:56;;;;;;;23.30;22.20;;;23.10;27.40;;;;;;5031694;28;20215;-82
2022/05/17 11:39:31;;;;;;;23.10;21.90;;;22.90;27.20;;;;;;5031160;28;20931;-82
2022/05/17 11:42:30;;;;;;;22.40;21.00;;;22.70;27.10;;;;;;5031600;28;20444;-81
2022/05/17 11:45:15;;;;;;;23.67;22.37;;;22.70;28.10;;;;;;5031155;28;20443;-81
2022/05/17 11:47:41;;;;;;;23.53;22.17;;;22.70;27.70;;;;;;5031075;28;20427;-82
2022/05/17 11:50:31;;;;;;;23.67;22.37;;;22.80;27.00;;;;;;5031385;28;20465;-82
2022/05/17 11:53:22;;;;;;;24.00;22.87;;;22.90;26.30;;;;;;5021234;28;20176;-84
2022/05/17 11:56:13;;;;;;;23.40;22.50;;;23.00;27.00;;;;;;5033679;28;20432;-83
2022/05/17 11:58:40;;;;;;;24.93;23.67;;;23.20;27.60;;;;;;5017893;28;20793;-83
2022/05/17 12:01:31;;;;;;;24.60;23.50;;;23.40;27.30;;;;;;5017940;28;20427;-82
2022/05/17 12:04:09;;;;;;;23.27;22.37;;;23.50;25.90;;;;;;5020764;28;20431;-83
2022/05/17 12:07:04;;;;;;;24.40;22.97;;;23.60;26.30;;;;;;5020471;28;20476;-83
2022/05/17 12:09:37;;;;;;;23.17;22.17;;;23.60;26.20;;;;;;5045972;28;20506;-82
2022/05/17 12:12:11;;;;;;;23.10;22.03;;;23.60;26.30;;;;;;5021846;28;20419;-83
2022/05/17 12:15:03;;;;;;;24.73;23.63;;;23.70;25.70;;;;;;5019298;28;20453;-83
2022/05/17 12:17:44;;;;;;;25.93;24.83;;;23.90;26.70;;;;;;5034849;28;20419;-82
2022/05/17 12:20:12;;;;;;;24.77;23.77;;;23.90;24.80;;;;;;5013943;28;20423;-85
2022/05/17 12:22:54;;;;;;;24.40;23.40;;;23.80;25.40;;;;;;5021037;28;20427;-82
2022/05/17 12:25:22;;;;;;;24.10;23.00;;;23.80;26.00;;;;;;5025461;28;20809;-82
2022/05/17 12:27:48;;;;;;;24.57;23.47;;;23.90;24.90;;;;;;5031232;28;20790;-82
2022/05/17 12:33:18;;;;;;;22.90;21.90;;;23.90;25.70;;;;;;5032767;28;20644;-82
2022/05/17 12:35:44;;;;;;;23.43;22.40;;;23.80;25.30;;;;;;5030422;28;20419;-84
2022/05/17 12:43:47;;;;;;;23.17;22.17;;;23.80;25.20;;;;;;5031780;28;20461;-84
2022/05/17 12:46:22;;;;;;;22.80;21.80;;;24.00;24.40;;;;;;5028990;28;20463;-84
2022/05/17 12:48:50;;;;;;;24.27;23.23;;;24.10;24.50;;;;;;5030424;28;20490;-84
2022/05/17 12:51:20;;;;;;;22.17;21.17;;;24.20;24.10;;;;;;5030173;28;20419;-84
2022/05/17 12:53:58;;;;;;;22.77;21.77;;;24.20;24.50;;;;;;5029909;28;20505;-83
2022/05/17 12:56:24;;;;;;;22.30;21.20;;;24.30;23.50;;;;;;5030620;28;20418;-84
2022/05/17 12:59:03;;;;;;;22.80;21.90;;;24.40;23.40;;;;;;5032759;28;20975;-84
2022/05/17 13:01:29;;;;;;;22.50;21.50;;;24.40;23.60;;;;;;5027756;28;20276;-84
2022/05/17 13:03:57;;;;;;;22.90;22.00;;;24.30;23.20;;;;;;5013417;28;20464;-85